createdAt,value
2019-01-06T00:50:12.791Z,79.13
2019-01-06T02:27:47.116Z,79.42
2019-01-06T06:56:35.592Z,78.26
2019-01-06T10:29:38.727Z,76.84
2019-01-06T10:34:58.998Z,77.81
2019-01-06T10:41:00.147Z,75.48
2019-01-06T14:12:33.005Z,72.75
2019-01-06T14:18:44.510Z,72.48
2019-01-06T14:24:08.797Z,72.38
2019-01-06T15:01:05.695Z,73.70
2019-01-06T15:06:34.771Z,74.08
2019-01-06T15:18:33.285Z,75.03
2019-01-06T15:24:23.377Z,75.38
2019-01-06T17:41:34.657Z,76.70
2019-01-06T17:46:56.242Z,76.90
2019-01-06T17:52:21.161Z,76.82
2019-01-06T17:57:42.849Z,77.66
2019-01-06T18:02:58.226Z,77.03
2019-01-06T18:08:28.688Z,76.73
2019-01-06T18:14:05.416Z,76.78
2019-01-06T18:19:26.126Z,76.52
2019-01-06T18:25:07.236Z,76.87
2019-01-06T18:30:57.374Z,76.05
2019-01-06T18:36:26.339Z,76.16
2019-01-06T18:41:52.044Z,76.12
2019-01-06T18:47:12.005Z,76.03
2019-01-06T18:52:32.380Z,75.81
2019-01-06T18:57:57.002Z,75.93
2019-01-06T19:03:18.666Z,75.71
2019-01-06T19:08:49.220Z,75.40
2019-01-06T19:14:22.675Z,75.67
2019-01-06T19:19:42.645Z,75.44
2019-01-06T19:25:02.735Z,75.53
2019-01-06T19:30:27.504Z,75.79
2019-01-06T19:35:58.248Z,75.12
2019-01-06T19:41:26.194Z,75.13
2019-01-06T19:46:46.566Z,75.46
2019-01-06T19:52:17.412Z,75.85
2019-01-06T19:57:37.261Z,75.07
2019-01-06T20:03:04.947Z,75.37
2019-01-06T20:08:39.353Z,75.72
2019-01-06T20:13:59.581Z,75.83
2019-01-06T20:19:36.383Z,76.82
2019-01-06T20:25:12.950Z,77.80
2019-01-06T20:30:34.628Z,78.28
2019-01-06T20:35:54.717Z,78.32
2019-01-06T20:41:34.385Z,78.31
2019-01-06T20:47:07.830Z,76.63
2019-01-06T20:52:27.825Z,75.98
2019-01-06T20:58:03.402Z,75.61
2019-01-06T21:03:28.086Z,76.17
2019-01-06T21:08:56.441Z,76.95
2019-01-06T21:14:12.923Z,77.40
2019-01-06T21:19:53.376Z,77.37
2019-01-06T21:25:13.332Z,77.17
2019-01-06T21:30:41.117Z,77.02
2019-01-06T21:36:12.364Z,77.18
2019-01-06T21:41:34.072Z,77.29
2019-01-06T21:46:54.058Z,77.45
2019-01-06T21:52:06.532Z,77.42
2019-01-06T21:57:39.953Z,77.57
2019-01-06T22:03:00.007Z,77.95
2019-01-06T22:08:20.404Z,78.46
2019-01-06T22:13:46.237Z,78.94
2019-01-06T22:19:16.807Z,78.95
2019-01-06T22:24:36.800Z,79.53
2019-01-06T22:29:57.108Z,79.55
2019-01-06T22:35:18.916Z,79.94
2019-01-06T22:40:38.031Z,80.20
2019-01-06T22:45:58.371Z,80.40
2019-01-06T22:51:25.834Z,80.49
2019-01-06T22:56:53.370Z,80.65
2019-01-06T23:02:30.134Z,80.84
2019-01-06T23:07:50.632Z,80.72
2019-01-06T23:13:21.137Z,80.82
2019-01-06T23:18:48.403Z,80.70
2019-01-06T23:24:08.180Z,80.54
2019-01-06T23:29:38.897Z,80.48
2019-01-06T23:34:58.846Z,80.55
2019-01-06T23:40:19.186Z,80.65
2019-01-06T23:45:39.463Z,81.02
2019-01-06T23:50:54.510Z,80.97
2019-01-06T23:56:24.860Z,81.39
